KDNS/DNS METAR and TAF weather

Enter ICAO airport designator
Station Type Date Time Source
KDNS METAR 2020/09/23 19:55 UTC NOAA

KDNS 231955Z AUTO 20013G21KT 10SM CLR 25/16 A2995 RMK AO2


Station Type Date Time Source
KDNS Decoded METAR 2020/09/23 19:55 UTC NOAA

Denison, IA, United States (KDNS) 41-59N 095-23W
Sep 23, 2020 - 03:55 PM EDT / 2020.09.23 1955 UTC
Wind: from the SSW (200 degrees) at 15 MPH (13 KT) gusting to 24 MPH (21 KT):0
Visibility: 10 mile(s):0
Sky conditions: clear
Temperature: 77 F (25 C)
Dew Point: 60 F (16 C)
Relative Humidity: 57%
Pressure (altimeter): 29.95 in. Hg (1014 hPa)
ob: KDNS 231955Z AUTO 20013G21KT 10SM CLR 25/16 A2995 RMK AO2
cycle: 20

Station Type Date Time Source
KDNS TAF UTC NOAA

Error!

Example: see airport list